sensor_id;sensor_type;location;lat;lon;timestamp;P1;durP1;ratioP1;P2;durP2;ratioP2
50779;SDS011;36748;37.428;-121.972;2023-04-07T00:00:24;3.40;;;1.10;;
50779;SDS011;36748;37.428;-121.972;2023-04-07T00:02:51;2.00;;;0.75;;
50779;SDS011;36748;37.428;-121.972;2023-04-07T00:05:17;1.55;;;0.80;;
50779;SDS011;36748;37.428;-121.972;2023-04-07T00:07:44;2.85;;;0.90;;
50779;SDS011;36748;37.428;-121.972;2023-04-07T00:10:10;1.25;;;0.70;;
50779;SDS011;36748;37.428;-121.972;2023-04-07T00:12:36;2.72;;;0.82;;
50779;SDS011;36748;37.428;-121.972;2023-04-07T00:15:02;3.80;;;0.77;;
50779;SDS011;36748;37.428;-121.972;2023-04-07T00:17:29;2.92;;;1.00;;
50779;SDS011;36748;37.428;-121.972;2023-04-07T00:19:55;3.38;;;0.98;;
50779;SDS011;36748;37.428;-121.972;2023-04-07T00:22:21;3.30;;;0.98;;
50779;SDS011;36748;37.428;-121.972;2023-04-07T00:24:47;1.98;;;1.05;;
50779;SDS011;36748;37.428;-121.972;2023-04-07T00:27:14;4.18;;;0.90;;
50779;SDS011;36748;37.428;-121.972;2023-04-07T00:29:40;4.25;;;1.13;;
50779;SDS011;36748;37.428;-121.972;2023-04-07T00:32:08;3.42;;;1.10;;
50779;SDS011;36748;37.428;-121.972;2023-04-07T00:34:34;2.67;;;0.88;;
50779;SDS011;36748;37.428;-121.972;2023-04-07T00:37:00;1.60;;;0.95;;
50779;SDS011;36748;37.428;-121.972;2023-04-07T00:39:26;5.13;;;1.08;;
50779;SDS011;36748;37.428;-121.972;2023-04-07T00:41:52;2.55;;;0.80;;
50779;SDS011;36748;37.428;-121.972;2023-04-07T00:44:19;1.88;;;0.93;;
50779;SDS011;36748;37.428;-121.972;2023-04-07T00:46:46;1.02;;;0.73;;
50779;SDS011;36748;37.428;-121.972;2023-04-07T00:49:12;7.03;;;1.17;;
50779;SDS011;36748;37.428;-121.972;2023-04-07T00:51:42;2.55;;;0.98;;
50779;SDS011;36748;37.428;-121.972;2023-04-07T00:54:08;1.90;;;0.88;;
50779;SDS011;36748;37.428;-121.972;2023-04-07T00:56:35;2.63;;;1.10;;
50779;SDS011;36748;37.428;-121.972;2023-04-07T00:59:02;2.63;;;0.70;;
50779;SDS011;36748;37.428;-121.972;2023-04-07T01:01:30;1.83;;;1.00;;
50779;SDS011;36748;37.428;-121.972;2023-04-07T01:04:03;1.30;;;0.80;;
50779;SDS011;36748;37.428;-121.972;2023-04-07T01:06:31;2.00;;;0.90;;
50779;SDS011;36748;37.428;-121.972;2023-04-07T01:11:40;7.00;;;1.20;;
50779;SDS011;36748;37.428;-121.972;2023-04-07T01:14:09;3.50;;;1.00;;
50779;SDS011;36748;37.428;-121.972;2023-04-07T01:16:38;2.38;;;1.20;;
50779;SDS011;36748;37.428;-121.972;2023-04-07T01:21:59;2.28;;;0.95;;
50779;SDS011;36748;37.428;-121.972;2023-04-07T01:30:16;6.57;;;0.98;;
50779;SDS011;36748;37.428;-121.972;2023-04-07T01:32:44;1.45;;;0.70;;
50779;SDS011;36748;37.428;-121.972;2023-04-07T01:35:16;2.63;;;0.95;;
50779;SDS011;36748;37.428;-121.972;2023-04-07T01:37:43;3.60;;;0.90;;
50779;SDS011;36748;37.428;-121.972;2023-04-07T01:40:13;2.00;;;0.90;;
50779;SDS011;36748;37.428;-121.972;2023-04-07T01:42:40;2.22;;;0.80;;
50779;SDS011;36748;37.428;-121.972;2023-04-07T01:45:07;2.50;;;1.05;;
50779;SDS011;36748;37.428;-121.972;2023-04-07T01:47:35;1.20;;;0.60;;
50779;SDS011;36748;37.428;-121.972;2023-04-07T01:50:04;4.85;;;0.70;;
50779;SDS011;36748;37.428;-121.972;2023-04-07T01:52:33;1.55;;;0.95;;
50779;SDS011;36748;37.428;-121.972;2023-04-07T01:55:02;2.33;;;0.80;;
50779;SDS011;36748;37.428;-121.972;2023-04-07T01:57:28;3.63;;;0.88;;
50779;SDS011;36748;37.428;-121.972;2023-04-07T01:59:55;1.77;;;0.82;;
50779;SDS011;36748;37.428;-121.972;2023-04-07T02:02:21;3.42;;;0.90;;
50779;SDS011;36748;37.428;-121.972;2023-04-07T02:04:51;2.83;;;0.68;;
50779;SDS011;36748;37.428;-121.972;2023-04-07T02:07:28;2.00;;;0.70;;
50779;SDS011;36748;37.428;-121.972;2023-04-07T02:10:02;4.57;;;1.27;;
50779;SDS011;36748;37.428;-121.972;2023-04-07T02:12:30;4.65;;;0.70;;
50779;SDS011;36748;37.428;-121.972;2023-04-07T02:14:57;1.70;;;0.73;;
50779;SDS011;36748;37.428;-121.972;2023-04-07T02:17:23;3.13;;;1.23;;
50779;SDS011;36748;37.428;-121.972;2023-04-07T02:19:51;0.95;;;0.60;;
50779;SDS011;36748;37.428;-121.972;2023-04-07T02:22:18;2.10;;;0.70;;
50779;SDS011;36748;37.428;-121.972;2023-04-07T02:24:44;1.50;;;0.85;;
50779;SDS011;36748;37.428;-121.972;2023-04-07T02:27:10;1.85;;;0.80;;
50779;SDS011;36748;37.428;-121.972;2023-04-07T02:29:37;2.13;;;0.75;;
50779;SDS011;36748;37.428;-121.972;2023-04-07T02:32:04;1.58;;;0.60;;
50779;SDS011;36748;37.428;-121.972;2023-04-07T02:34:31;1.50;;;0.70;;
50779;SDS011;36748;37.428;-121.972;2023-04-07T02:36:57;2.63;;;0.80;;
50779;SDS011;36748;37.428;-121.972;2023-04-07T02:39:23;2.08;;;0.63;;
50779;SDS011;36748;37.428;-121.972;2023-04-07T02:41:50;1.58;;;0.77;;
50779;SDS011;36748;37.428;-121.972;2023-04-07T02:44:16;3.80;;;0.88;;
50779;SDS011;36748;37.428;-121.972;2023-04-07T02:46:42;1.23;;;0.70;;
50779;SDS011;36748;37.428;-121.972;2023-04-07T02:49:08;1.45;;;0.70;;
50779;SDS011;36748;37.428;-121.972;2023-04-07T02:51:34;2.20;;;0.70;;
50779;SDS011;36748;37.428;-121.972;2023-04-07T02:54:01;0.50;;;0.40;;
50779;SDS011;36748;37.428;-121.972;2023-04-07T02:56:27;1.15;;;0.70;;
50779;SDS011;36748;37.428;-121.972;2023-04-07T02:58:53;2.67;;;0.90;;
50779;SDS011;36748;37.428;-121.972;2023-04-07T03:01:19;1.42;;;0.90;;
50779;SDS011;36748;37.428;-121.972;2023-04-07T03:03:45;0.98;;;0.50;;
50779;SDS011;36748;37.428;-121.972;2023-04-07T03:06:12;1.67;;;0.60;;
50779;SDS011;36748;37.428;-121.972;2023-04-07T03:08:38;2.10;;;0.70;;
50779;SDS011;36748;37.428;-121.972;2023-04-07T03:11:05;1.33;;;0.60;;
50779;SDS011;36748;37.428;-121.972;2023-04-07T03:13:31;3.05;;;0.70;;
50779;SDS011;36748;37.428;-121.972;2023-04-07T03:15:57;1.77;;;0.70;;
50779;SDS011;36748;37.428;-121.972;2023-04-07T03:18:23;2.38;;;0.98;;
50779;SDS011;36748;37.428;-121.972;2023-04-07T03:20:49;3.25;;;0.90;;
50779;SDS011;36748;37.428;-121.972;2023-04-07T03:23:17;2.05;;;0.70;;
50779;SDS011;36748;37.428;-121.972;2023-04-07T03:25:43;1.90;;;0.57;;
50779;SDS011;36748;37.428;-121.972;2023-04-07T03:28:09;1.77;;;0.85;;
50779;SDS011;36748;37.428;-121.972;2023-04-07T03:30:35;0.80;;;0.70;;
50779;SDS011;36748;37.428;-121.972;2023-04-07T03:33:02;1.55;;;0.80;;
50779;SDS011;36748;37.428;-121.972;2023-04-07T03:35:28;2.13;;;0.73;;
50779;SDS011;36748;37.428;-121.972;2023-04-07T03:37:54;3.78;;;0.80;;
50779;SDS011;36748;37.428;-121.972;2023-04-07T03:40:20;2.20;;;0.65;;
50779;SDS011;36748;37.428;-121.972;2023-04-07T03:42:47;1.58;;;0.82;;
50779;SDS011;36748;37.428;-121.972;2023-04-07T03:45:13;2.90;;;0.70;;
50779;SDS011;36748;37.428;-121.972;2023-04-07T03:47:39;1.00;;;0.65;;
50779;SDS011;36748;37.428;-121.972;2023-04-07T03:50:06;3.17;;;0.63;;
50779;SDS011;36748;37.428;-121.972;2023-04-07T03:52:33;2.28;;;0.85;;
50779;SDS011;36748;37.428;-121.972;2023-04-07T03:54:59;1.00;;;0.63;;
50779;SDS011;36748;37.428;-121.972;2023-04-07T03:57:25;1.85;;;0.90;;
50779;SDS011;36748;37.428;-121.972;2023-04-07T03:59:52;1.00;;;0.75;;
50779;SDS011;36748;37.428;-121.972;2023-04-07T04:02:20;1.50;;;0.93;;
50779;SDS011;36748;37.428;-121.972;2023-04-07T04:04:46;2.30;;;0.90;;
50779;SDS011;36748;37.428;-121.972;2023-04-07T04:07:12;3.38;;;0.80;;
50779;SDS011;36748;37.428;-121.972;2023-04-07T04:09:38;2.63;;;0.68;;
50779;SDS011;36748;37.428;-121.972;2023-04-07T04:12:05;2.15;;;0.75;;
50779;SDS011;36748;37.428;-121.972;2023-04-07T04:14:31;1.05;;;0.70;;
50779;SDS011;36748;37.428;-121.972;2023-04-07T04:16:57;2.03;;;0.70;;
50779;SDS011;36748;37.428;-121.972;2023-04-07T04:19:24;2.13;;;0.77;;
50779;SDS011;36748;37.428;-121.972;2023-04-07T04:21:50;5.15;;;0.75;;
50779;SDS011;36748;37.428;-121.972;2023-04-07T04:24:16;3.03;;;0.70;;
50779;SDS011;36748;37.428;-121.972;2023-04-07T04:26:43;5.20;;;0.88;;
50779;SDS011;36748;37.428;-121.972;2023-04-07T04:29:09;1.50;;;0.70;;
50779;SDS011;36748;37.428;-121.972;2023-04-07T04:31:35;4.38;;;0.90;;
50779;SDS011;36748;37.428;-121.972;2023-04-07T04:34:01;4.90;;;0.80;;
50779;SDS011;36748;37.428;-121.972;2023-04-07T04:36:27;2.88;;;0.82;;
50779;SDS011;36748;37.428;-121.972;2023-04-07T04:38:54;3.20;;;1.08;;
50779;SDS011;36748;37.428;-121.972;2023-04-07T04:41:20;2.65;;;0.80;;
50779;SDS011;36748;37.428;-121.972;2023-04-07T04:43:46;4.88;;;1.02;;
50779;SDS011;36748;37.428;-121.972;2023-04-07T04:46:12;1.60;;;0.90;;
50779;SDS011;36748;37.428;-121.972;2023-04-07T04:48:39;5.97;;;1.05;;
50779;SDS011;36748;37.428;-121.972;2023-04-07T04:51:06;1.40;;;0.63;;
50779;SDS011;36748;37.428;-121.972;2023-04-07T04:53:32;3.33;;;0.93;;
50779;SDS011;36748;37.428;-121.972;2023-04-07T04:55:58;2.67;;;0.82;;
50779;SDS011;36748;37.428;-121.972;2023-04-07T04:58:26;2.60;;;0.70;;
50779;SDS011;36748;37.428;-121.972;2023-04-07T05:00:52;3.70;;;0.60;;
50779;SDS011;36748;37.428;-121.972;2023-04-07T05:03:23;4.65;;;0.70;;
50779;SDS011;36748;37.428;-121.972;2023-04-07T05:05:52;2.10;;;0.70;;
50779;SDS011;36748;37.428;-121.972;2023-04-07T05:08:18;1.73;;;0.70;;
50779;SDS011;36748;37.428;-121.972;2023-04-07T05:10:45;3.63;;;0.80;;
50779;SDS011;36748;37.428;-121.972;2023-04-07T05:13:11;2.70;;;0.80;;
50779;SDS011;36748;37.428;-121.972;2023-04-07T05:15:39;4.32;;;0.70;;
50779;SDS011;36748;37.428;-121.972;2023-04-07T05:18:06;3.60;;;0.85;;
50779;SDS011;36748;37.428;-121.972;2023-04-07T05:20:32;2.13;;;0.70;;
50779;SDS011;36748;37.428;-121.972;2023-04-07T05:22:58;1.30;;;0.70;;
50779;SDS011;36748;37.428;-121.972;2023-04-07T05:25:26;1.95;;;0.93;;
50779;SDS011;36748;37.428;-121.972;2023-04-07T05:27:52;1.25;;;0.80;;
50779;SDS011;36748;37.428;-121.972;2023-04-07T05:30:18;2.00;;;0.80;;
50779;SDS011;36748;37.428;-121.972;2023-04-07T05:32:45;1.25;;;0.70;;
50779;SDS011;36748;37.428;-121.972;2023-04-07T05:35:11;0.90;;;0.40;;
50779;SDS011;36748;37.428;-121.972;2023-04-07T05:37:38;1.63;;;0.80;;
50779;SDS011;36748;37.428;-121.972;2023-04-07T05:40:05;1.23;;;0.60;;
50779;SDS011;36748;37.428;-121.972;2023-04-07T05:42:31;1.33;;;0.57;;
50779;SDS011;36748;37.428;-121.972;2023-04-07T05:44:57;0.93;;;0.55;;
50779;SDS011;36748;37.428;-121.972;2023-04-07T05:47:24;1.20;;;0.50;;
50779;SDS011;36748;37.428;-121.972;2023-04-07T05:49:50;2.17;;;0.65;;
50779;SDS011;36748;37.428;-121.972;2023-04-07T05:52:16;2.10;;;0.57;;
50779;SDS011;36748;37.428;-121.972;2023-04-07T05:54:42;2.40;;;0.95;;
50779;SDS011;36748;37.428;-121.972;2023-04-07T05:57:09;4.03;;;0.82;;
50779;SDS011;36748;37.428;-121.972;2023-04-07T05:59:35;1.50;;;0.65;;
50779;SDS011;36748;37.428;-121.972;2023-04-07T06:02:02;0.85;;;0.55;;
50779;SDS011;36748;37.428;-121.972;2023-04-07T06:04:28;2.50;;;0.50;;
50779;SDS011;36748;37.428;-121.972;2023-04-07T06:06:54;2.20;;;0.60;;
50779;SDS011;36748;37.428;-121.972;2023-04-07T06:09:21;2.28;;;0.70;;
50779;SDS011;36748;37.428;-121.972;2023-04-07T06:11:47;1.60;;;0.68;;
50779;SDS011;36748;37.428;-121.972;2023-04-07T06:14:13;1.25;;;0.63;;
50779;SDS011;36748;37.428;-121.972;2023-04-07T06:16:40;0.98;;;0.50;;
50779;SDS011;36748;37.428;-121.972;2023-04-07T06:19:06;2.08;;;0.73;;
50779;SDS011;36748;37.428;-121.972;2023-04-07T06:21:32;1.55;;;0.57;;
50779;SDS011;36748;37.428;-121.972;2023-04-07T06:23:59;0.98;;;0.55;;
50779;SDS011;36748;37.428;-121.972;2023-04-07T06:26:25;1.23;;;0.60;;
50779;SDS011;36748;37.428;-121.972;2023-04-07T06:28:51;0.73;;;0.60;;
50779;SDS011;36748;37.428;-121.972;2023-04-07T06:31:18;1.75;;;0.68;;
50779;SDS011;36748;37.428;-121.972;2023-04-07T06:33:44;1.45;;;0.70;;
50779;SDS011;36748;37.428;-121.972;2023-04-07T06:36:10;1.20;;;0.40;;
50779;SDS011;36748;37.428;-121.972;2023-04-07T06:38:37;0.90;;;0.60;;
50779;SDS011;36748;37.428;-121.972;2023-04-07T06:41:03;1.85;;;0.85;;
50779;SDS011;36748;37.428;-121.972;2023-04-07T06:43:30;1.48;;;0.52;;
50779;SDS011;36748;37.428;-121.972;2023-04-07T06:45:57;0.85;;;0.55;;
50779;SDS011;36748;37.428;-121.972;2023-04-07T06:48:26;0.63;;;0.50;;
50779;SDS011;36748;37.428;-121.972;2023-04-07T06:50:52;3.78;;;0.43;;
50779;SDS011;36748;37.428;-121.972;2023-04-07T06:53:18;0.68;;;0.57;;
50779;SDS011;36748;37.428;-121.972;2023-04-07T06:55:44;2.05;;;0.75;;
50779;SDS011;36748;37.428;-121.972;2023-04-07T06:58:10;0.73;;;0.50;;
50779;SDS011;36748;37.428;-121.972;2023-04-07T07:00:37;0.75;;;0.40;;
50779;SDS011;36748;37.428;-121.972;2023-04-07T07:03:03;1.23;;;0.70;;
50779;SDS011;36748;37.428;-121.972;2023-04-07T07:05:29;2.17;;;0.50;;
50779;SDS011;36748;37.428;-121.972;2023-04-07T07:07:56;0.73;;;0.50;;
50779;SDS011;36748;37.428;-121.972;2023-04-07T07:10:22;1.33;;;0.60;;
50779;SDS011;36748;37.428;-121.972;2023-04-07T07:12:49;1.88;;;0.60;;
50779;SDS011;36748;37.428;-121.972;2023-04-07T07:15:16;0.68;;;0.57;;
50779;SDS011;36748;37.428;-121.972;2023-04-07T07:17:43;0.93;;;0.50;;
50779;SDS011;36748;37.428;-121.972;2023-04-07T07:20:09;4.55;;;0.65;;
50779;SDS011;36748;37.428;-121.972;2023-04-07T07:22:35;0.77;;;0.50;;
50779;SDS011;36748;37.428;-121.972;2023-04-07T07:25:02;1.05;;;0.40;;
50779;SDS011;36748;37.428;-121.972;2023-04-07T07:27:28;1.30;;;0.45;;
50779;SDS011;36748;37.428;-121.972;2023-04-07T07:29:54;1.00;;;0.60;;
50779;SDS011;36748;37.428;-121.972;2023-04-07T07:32:21;0.90;;;0.50;;
50779;SDS011;36748;37.428;-121.972;2023-04-07T07:34:47;0.90;;;0.55;;
50779;SDS011;36748;37.428;-121.972;2023-04-07T07:37:14;2.08;;;0.63;;
50779;SDS011;36748;37.428;-121.972;2023-04-07T07:39:40;1.40;;;0.55;;
50779;SDS011;36748;37.428;-121.972;2023-04-07T07:42:09;1.00;;;0.60;;
50779;SDS011;36748;37.428;-121.972;2023-04-07T07:44:35;0.70;;;0.50;;
50779;SDS011;36748;37.428;-121.972;2023-04-07T07:47:01;0.90;;;0.40;;
50779;SDS011;36748;37.428;-121.972;2023-04-07T07:49:27;0.85;;;0.47;;
50779;SDS011;36748;37.428;-121.972;2023-04-07T07:51:53;0.57;;;0.43;;
50779;SDS011;36748;37.428;-121.972;2023-04-07T07:54:20;0.52;;;0.30;;
50779;SDS011;36748;37.428;-121.972;2023-04-07T07:56:46;0.73;;;0.45;;
50779;SDS011;36748;37.428;-121.972;2023-04-07T07:59:12;0.73;;;0.50;;
50779;SDS011;36748;37.428;-121.972;2023-04-07T08:01:38;0.60;;;0.40;;
50779;SDS011;36748;37.428;-121.972;2023-04-07T08:04:05;0.93;;;0.40;;
50779;SDS011;36748;37.428;-121.972;2023-04-07T08:06:31;1.08;;;0.60;;
50779;SDS011;36748;37.428;-121.972;2023-04-07T08:08:57;1.08;;;0.50;;
50779;SDS011;36748;37.428;-121.972;2023-04-07T08:11:23;0.98;;;0.50;;
50779;SDS011;36748;37.428;-121.972;2023-04-07T08:13:50;1.67;;;0.68;;
50779;SDS011;36748;37.428;-121.972;2023-04-07T08:16:18;1.55;;;0.65;;
50779;SDS011;36748;37.428;-121.972;2023-04-07T08:18:45;0.90;;;0.60;;
50779;SDS011;36748;37.428;-121.972;2023-04-07T08:21:11;1.00;;;0.50;;
50779;SDS011;36748;37.428;-121.972;2023-04-07T08:23:37;0.82;;;0.43;;
50779;SDS011;36748;37.428;-121.972;2023-04-07T08:26:03;0.63;;;0.30;;
50779;SDS011;36748;37.428;-121.972;2023-04-07T08:28:30;0.40;;;0.30;;
50779;SDS011;36748;37.428;-121.972;2023-04-07T08:30:56;0.65;;;0.50;;
50779;SDS011;36748;37.428;-121.972;2023-04-07T08:33:22;0.68;;;0.55;;
50779;SDS011;36748;37.428;-121.972;2023-04-07T08:35:48;0.47;;;0.40;;
50779;SDS011;36748;37.428;-121.972;2023-04-07T08:38:15;1.40;;;0.73;;
50779;SDS011;36748;37.428;-121.972;2023-04-07T08:40:41;0.75;;;0.40;;
50779;SDS011;36748;37.428;-121.972;2023-04-07T08:43:08;0.98;;;0.50;;
50779;SDS011;36748;37.428;-121.972;2023-04-07T08:45:38;0.60;;;0.32;;
50779;SDS011;36748;37.428;-121.972;2023-04-07T08:48:15;0.70;;;0.30;;
50779;SDS011;36748;37.428;-121.972;2023-04-07T08:50:45;1.77;;;0.65;;
50779;SDS011;36748;37.428;-121.972;2023-04-07T08:53:17;1.42;;;0.57;;
50779;SDS011;36748;37.428;-121.972;2023-04-07T08:55:48;1.00;;;0.50;;
50779;SDS011;36748;37.428;-121.972;2023-04-07T08:58:15;0.63;;;0.45;;
50779;SDS011;36748;37.428;-121.972;2023-04-07T09:00:44;0.82;;;0.55;;
50779;SDS011;36748;37.428;-121.972;2023-04-07T09:03:14;1.55;;;0.57;;
50779;SDS011;36748;37.428;-121.972;2023-04-07T09:05:42;0.63;;;0.40;;
50779;SDS011;36748;37.428;-121.972;2023-04-07T09:08:12;1.67;;;0.70;;
50779;SDS011;36748;37.428;-121.972;2023-04-07T09:10:39;0.77;;;0.40;;
50779;SDS011;36748;37.428;-121.972;2023-04-07T09:13:05;0.65;;;0.50;;
50779;SDS011;36748;37.428;-121.972;2023-04-07T09:15:31;0.60;;;0.47;;
50779;SDS011;36748;37.428;-121.972;2023-04-07T09:17:58;1.52;;;0.50;;
50779;SDS011;36748;37.428;-121.972;2023-04-07T09:20:24;0.93;;;0.50;;
50779;SDS011;36748;37.428;-121.972;2023-04-07T09:22:50;0.35;;;0.30;;
50779;SDS011;36748;37.428;-121.972;2023-04-07T09:25:18;1.05;;;0.43;;
50779;SDS011;36748;37.428;-121.972;2023-04-07T09:27:57;0.95;;;0.57;;
50779;SDS011;36748;37.428;-121.972;2023-04-07T09:30:32;0.95;;;0.50;;
50779;SDS011;36748;37.428;-121.972;2023-04-07T09:32:59;0.60;;;0.50;;
50779;SDS011;36748;37.428;-121.972;2023-04-07T09:35:25;1.00;;;0.40;;
50779;SDS011;36748;37.428;-121.972;2023-04-07T09:38:02;1.15;;;0.55;;
50779;SDS011;36748;37.428;-121.972;2023-04-07T09:40:32;1.13;;;0.40;;
50779;SDS011;36748;37.428;-121.972;2023-04-07T09:42:59;1.13;;;0.50;;
50779;SDS011;36748;37.428;-121.972;2023-04-07T09:45:27;0.88;;;0.40;;
50779;SDS011;36748;37.428;-121.972;2023-04-07T09:47:54;0.50;;;0.50;;
50779;SDS011;36748;37.428;-121.972;2023-04-07T09:50:30;1.15;;;0.50;;
50779;SDS011;36748;37.428;-121.972;2023-04-07T09:53:01;0.65;;;0.40;;
50779;SDS011;36748;37.428;-121.972;2023-04-07T09:55:29;1.42;;;0.57;;
50779;SDS011;36748;37.428;-121.972;2023-04-07T09:57:58;1.08;;;0.60;;
50779;SDS011;36748;37.428;-121.972;2023-04-07T10:00:24;0.82;;;0.70;;
50779;SDS011;36748;37.428;-121.972;2023-04-07T10:02:51;0.95;;;0.52;;
50779;SDS011;36748;37.428;-121.972;2023-04-07T10:05:17;2.92;;;0.40;;
50779;SDS011;36748;37.428;-121.972;2023-04-07T10:07:46;1.90;;;0.52;;
50779;SDS011;36748;37.428;-121.972;2023-04-07T10:10:13;1.60;;;0.47;;
50779;SDS011;36748;37.428;-121.972;2023-04-07T10:12:40;0.75;;;0.63;;
50779;SDS011;36748;37.428;-121.972;2023-04-07T10:15:06;0.88;;;0.40;;
50779;SDS011;36748;37.428;-121.972;2023-04-07T10:17:35;0.43;;;0.40;;
50779;SDS011;36748;37.428;-121.972;2023-04-07T10:20:03;0.90;;;0.55;;
50779;SDS011;36748;37.428;-121.972;2023-04-07T10:22:31;1.13;;;0.47;;
50779;SDS011;36748;37.428;-121.972;2023-04-07T10:25:04;0.57;;;0.35;;
50779;SDS011;36748;37.428;-121.972;2023-04-07T10:30:30;1.75;;;0.43;;
50779;SDS011;36748;37.428;-121.972;2023-04-07T10:32:57;2.97;;;0.50;;
50779;SDS011;36748;37.428;-121.972;2023-04-07T10:35:24;1.23;;;0.50;;
50779;SDS011;36748;37.428;-121.972;2023-04-07T10:40:32;0.80;;;0.30;;
50779;SDS011;36748;37.428;-121.972;2023-04-07T10:42:58;0.95;;;0.40;;
50779;SDS011;36748;37.428;-121.972;2023-04-07T10:48:11;0.60;;;0.43;;
50779;SDS011;36748;37.428;-121.972;2023-04-07T10:50:38;1.00;;;0.52;;
50779;SDS011;36748;37.428;-121.972;2023-04-07T10:53:05;0.68;;;0.45;;
50779;SDS011;36748;37.428;-121.972;2023-04-07T10:55:39;0.60;;;0.30;;
50779;SDS011;36748;37.428;-121.972;2023-04-07T10:58:12;1.00;;;0.52;;
50779;SDS011;36748;37.428;-121.972;2023-04-07T11:00:41;0.73;;;0.57;;
50779;SDS011;36748;37.428;-121.972;2023-04-07T11:03:09;0.35;;;0.22;;
50779;SDS011;36748;37.428;-121.972;2023-04-07T11:05:40;0.30;;;0.30;;
50779;SDS011;36748;37.428;-121.972;2023-04-07T11:08:06;0.90;;;0.50;;
50779;SDS011;36748;37.428;-121.972;2023-04-07T11:10:33;0.75;;;0.50;;
50779;SDS011;36748;37.428;-121.972;2023-04-07T11:13:07;0.52;;;0.30;;
50779;SDS011;36748;37.428;-121.972;2023-04-07T11:15:34;0.47;;;0.40;;
50779;SDS011;36748;37.428;-121.972;2023-04-07T11:18:09;0.30;;;0.30;;
50779;SDS011;36748;37.428;-121.972;2023-04-07T11:20:54;0.52;;;0.30;;
50779;SDS011;36748;37.428;-121.972;2023-04-07T11:23:23;0.20;;;0.20;;
50779;SDS011;36748;37.428;-121.972;2023-04-07T11:25:58;1.17;;;0.40;;
50779;SDS011;36748;37.428;-121.972;2023-04-07T11:28:26;0.82;;;0.40;;
50779;SDS011;36748;37.428;-121.972;2023-04-07T11:30:53;0.25;;;0.25;;
50779;SDS011;36748;37.428;-121.972;2023-04-07T11:33:24;0.43;;;0.30;;
50779;SDS011;36748;37.428;-121.972;2023-04-07T11:35:59;0.65;;;0.50;;
50779;SDS011;36748;37.428;-121.972;2023-04-07T11:38:27;0.43;;;0.30;;
50779;SDS011;36748;37.428;-121.972;2023-04-07T11:40:55;0.70;;;0.50;;
50779;SDS011;36748;37.428;-121.972;2023-04-07T11:43:23;1.08;;;0.40;;
50779;SDS011;36748;37.428;-121.972;2023-04-07T11:48:37;1.00;;;0.57;;
50779;SDS011;36748;37.428;-121.972;2023-04-07T11:51:05;1.17;;;0.63;;
50779;SDS011;36748;37.428;-121.972;2023-04-07T11:53:32;0.50;;;0.40;;
50779;SDS011;36748;37.428;-121.972;2023-04-07T11:56:08;0.90;;;0.40;;
50779;SDS011;36748;37.428;-121.972;2023-04-07T11:58:50;0.60;;;0.50;;
50779;SDS011;36748;37.428;-121.972;2023-04-07T12:01:17;0.32;;;0.28;;
50779;SDS011;36748;37.428;-121.972;2023-04-07T12:03:55;0.30;;;0.30;;
50779;SDS011;36748;37.428;-121.972;2023-04-07T12:06:32;1.15;;;0.45;;
50779;SDS011;36748;37.428;-121.972;2023-04-07T12:09:05;1.38;;;0.40;;
50779;SDS011;36748;37.428;-121.972;2023-04-07T12:11:34;0.90;;;0.38;;
50779;SDS011;36748;37.428;-121.972;2023-04-07T12:14:01;1.10;;;0.50;;
50779;SDS011;36748;37.428;-121.972;2023-04-07T12:16:30;0.52;;;0.30;;
50779;SDS011;36748;37.428;-121.972;2023-04-07T12:18:57;0.50;;;0.47;;
50779;SDS011;36748;37.428;-121.972;2023-04-07T12:21:23;0.90;;;0.68;;
50779;SDS011;36748;37.428;-121.972;2023-04-07T12:23:50;0.98;;;0.35;;
50779;SDS011;36748;37.428;-121.972;2023-04-07T12:26:17;1.17;;;0.40;;
50779;SDS011;36748;37.428;-121.972;2023-04-07T12:28:43;0.80;;;0.60;;
50779;SDS011;36748;37.428;-121.972;2023-04-07T12:31:09;0.50;;;0.30;;
50779;SDS011;36748;37.428;-121.972;2023-04-07T12:33:35;0.65;;;0.50;;
50779;SDS011;36748;37.428;-121.972;2023-04-07T12:36:02;0.60;;;0.30;;
50779;SDS011;36748;37.428;-121.972;2023-04-07T12:38:28;0.65;;;0.40;;
50779;SDS011;36748;37.428;-121.972;2023-04-07T12:40:54;0.68;;;0.60;;
50779;SDS011;36748;37.428;-121.972;2023-04-07T12:43:30;0.30;;;0.30;;
50779;SDS011;36748;37.428;-121.972;2023-04-07T12:45:56;1.27;;;0.43;;
50779;SDS011;36748;37.428;-121.972;2023-04-07T12:48:23;0.52;;;0.30;;
50779;SDS011;36748;37.428;-121.972;2023-04-07T12:50:51;2.35;;;0.43;;
50779;SDS011;36748;37.428;-121.972;2023-04-07T12:53:17;0.95;;;0.40;;
50779;SDS011;36748;37.428;-121.972;2023-04-07T12:55:44;0.75;;;0.50;;
50779;SDS011;36748;37.428;-121.972;2023-04-07T12:58:12;1.70;;;0.40;;
50779;SDS011;36748;37.428;-121.972;2023-04-07T13:00:40;0.88;;;0.30;;
50779;SDS011;36748;37.428;-121.972;2023-04-07T13:03:06;0.80;;;0.38;;
50779;SDS011;36748;37.428;-121.972;2023-04-07T13:05:35;0.73;;;0.47;;
50779;SDS011;36748;37.428;-121.972;2023-04-07T13:08:01;0.50;;;0.40;;
50779;SDS011;36748;37.428;-121.972;2023-04-07T13:10:27;0.52;;;0.40;;
50779;SDS011;36748;37.428;-121.972;2023-04-07T13:12:53;0.50;;;0.50;;
50779;SDS011;36748;37.428;-121.972;2023-04-07T13:15:22;0.75;;;0.40;;
50779;SDS011;36748;37.428;-121.972;2023-04-07T13:17:48;0.35;;;0.28;;
50779;SDS011;36748;37.428;-121.972;2023-04-07T13:20:15;0.57;;;0.35;;
50779;SDS011;36748;37.428;-121.972;2023-04-07T13:22:41;0.40;;;0.20;;
50779;SDS011;36748;37.428;-121.972;2023-04-07T13:25:07;0.85;;;0.50;;
50779;SDS011;36748;37.428;-121.972;2023-04-07T13:27:33;1.42;;;0.50;;
50779;SDS011;36748;37.428;-121.972;2023-04-07T13:30:00;1.05;;;0.40;;
50779;SDS011;36748;37.428;-121.972;2023-04-07T13:32:26;1.90;;;0.38;;
50779;SDS011;36748;37.428;-121.972;2023-04-07T13:34:52;1.10;;;0.50;;
50779;SDS011;36748;37.428;-121.972;2023-04-07T13:37:18;1.05;;;0.30;;
50779;SDS011;36748;37.428;-121.972;2023-04-07T13:39:45;1.20;;;0.60;;
50779;SDS011;36748;37.428;-121.972;2023-04-07T13:42:12;1.02;;;0.40;;
50779;SDS011;36748;37.428;-121.972;2023-04-07T13:44:41;1.00;;;0.43;;
50779;SDS011;36748;37.428;-121.972;2023-04-07T13:47:09;0.75;;;0.47;;
50779;SDS011;36748;37.428;-121.972;2023-04-07T13:49:36;0.40;;;0.30;;
50779;SDS011;36748;37.428;-121.972;2023-04-07T13:52:02;0.70;;;0.40;;
50779;SDS011;36748;37.428;-121.972;2023-04-07T13:54:30;0.95;;;0.63;;
50779;SDS011;36748;37.428;-121.972;2023-04-07T13:56:56;3.55;;;0.70;;
50779;SDS011;36748;37.428;-121.972;2023-04-07T13:59:22;1.55;;;0.43;;
50779;SDS011;36748;37.428;-121.972;2023-04-07T14:01:49;0.60;;;0.30;;
50779;SDS011;36748;37.428;-121.972;2023-04-07T14:04:15;0.80;;;0.50;;
50779;SDS011;36748;37.428;-121.972;2023-04-07T14:06:42;0.90;;;0.50;;
50779;SDS011;36748;37.428;-121.972;2023-04-07T14:09:08;0.30;;;0.30;;
50779;SDS011;36748;37.428;-121.972;2023-04-07T14:11:36;0.70;;;0.50;;
50779;SDS011;36748;37.428;-121.972;2023-04-07T14:14:02;1.05;;;0.65;;
50779;SDS011;36748;37.428;-121.972;2023-04-07T14:16:28;1.77;;;0.85;;
50779;SDS011;36748;37.428;-121.972;2023-04-07T14:18:55;1.02;;;0.82;;
50779;SDS011;36748;37.428;-121.972;2023-04-07T14:21:22;1.20;;;0.60;;
50779;SDS011;36748;37.428;-121.972;2023-04-07T14:23:51;1.55;;;0.40;;
50779;SDS011;36748;37.428;-121.972;2023-04-07T14:26:17;0.75;;;0.57;;
50779;SDS011;36748;37.428;-121.972;2023-04-07T14:28:43;3.13;;;0.80;;
50779;SDS011;36748;37.428;-121.972;2023-04-07T14:31:14;1.00;;;0.52;;